Time;durP1;ratioP1;P1;durP2;ratioP2;P2;SDS_P1;SDS_P2;PMS_P1;PMS_P2;Temp;Humidity;BMP_temperature;BMP_pressure;BME280_temperature;BME280_humidity;BME280_pressure;Samples;Min_cycle;Max_cycle;Signal;HPM_P1;HPM_P2
2023/08/25 00:02:15;;;;;;;9.80;2.42;;;19.00;99.90;;;;;;5014486;28;88811;-76
2023/08/25 00:04:42;;;;;;;10.23;2.55;;;19.00;99.90;;;;;;5014365;28;87987;-76
2023/08/25 00:07:08;;;;;;;7.68;2.75;;;19.00;99.90;;;;;;5018430;28;87906;-77
2023/08/25 00:09:33;;;;;;;5.18;2.22;;;19.00;99.90;;;;;;5016940;28;87632;-77
2023/08/25 00:11:59;;;;;;;5.70;2.70;;;18.90;99.90;;;;;;5016874;28;88240;-77
2023/08/25 00:14:25;;;;;;;4.70;2.47;;;18.90;99.90;;;;;;5017538;28;87863;-76
2023/08/25 00:16:51;;;;;;;9.73;2.55;;;18.80;99.90;;;;;;5017267;28;88595;-76
2023/08/25 00:19:17;;;;;;;15.25;3.45;;;18.80;99.90;;;;;;5016928;28;87645;-76
2023/08/25 00:21:45;;;;;;;10.05;2.78;;;18.80;99.90;;;;;;5018412;28;89302;-76
2023/08/25 00:24:10;;;;;;;11.57;4.70;;;18.80;99.90;;;;;;5016569;28;88320;-76
2023/08/25 00:26:39;;;;;;;11.80;3.45;;;18.80;99.90;;;;;;4998680;28;88130;-77
2023/08/25 00:29:06;;;;;;;9.35;3.85;;;18.70;99.90;;;;;;5015311;28;88692;-77
2023/08/25 00:31:31;;;;;;;6.40;3.22;;;18.70;99.90;;;;;;5016248;28;87779;-76
2023/08/25 00:34:02;;;;;;;10.27;4.63;;;18.60;99.90;;;;;;5018594;28;86916;-77
2023/08/25 00:36:28;;;;;;;8.23;4.40;;;18.60;99.90;;;;;;5015010;28;87414;-76
2023/08/25 00:38:54;;;;;;;14.15;4.25;;;18.60;99.90;;;;;;5015496;28;91173;-76
2023/08/25 00:41:19;;;;;;;8.90;4.10;;;18.60;99.90;;;;;;5016287;28;89907;-76
2023/08/25 00:43:45;;;;;;;10.32;3.97;;;18.50;99.90;;;;;;5017372;28;88937;-76
2023/08/25 00:46:12;;;;;;;7.07;3.90;;;18.60;99.90;;;;;;5017122;28;87752;-77
2023/08/25 00:48:38;;;;;;;9.10;3.42;;;18.50;99.90;;;;;;5017781;28;87581;-76
2023/08/25 00:51:05;;;;;;;14.35;3.40;;;18.50;99.90;;;;;;5015190;28;89842;-76
2023/08/25 00:53:32;;;;;;;7.13;3.22;;;18.50;99.90;;;;;;4998237;28;91454;-76
2023/08/25 00:55:59;;;;;;;9.02;3.45;;;18.50;99.90;;;;;;5016965;28;87613;-77
2023/08/25 00:58:24;;;;;;;6.00;2.80;;;18.50;99.90;;;;;;5017307;28;86756;-77
2023/08/25 01:00:52;;;;;;;10.98;3.30;;;18.50;99.90;;;;;;5016837;28;88657;-76
2023/08/25 01:03:18;;;;;;;6.82;2.50;;;18.50;99.90;;;;;;5016373;28;87405;-76
2023/08/25 01:05:48;;;;;;;9.27;2.88;;;18.60;99.90;;;;;;5016728;28;88700;-76
2023/08/25 01:08:18;;;;;;;5.95;2.58;;;18.60;99.90;;;;;;5016243;28;87810;-76
2023/08/25 01:10:53;;;;;;;9.02;2.97;;;18.60;99.90;;;;;;4997306;28;91670;-76
2023/08/25 01:13:41;;;;;;;4.75;2.42;;;18.60;99.90;;;;;;5014167;28;90405;-77
2023/08/25 01:16:11;;;;;;;6.22;2.78;;;18.60;99.90;;;;;;5016479;28;87607;-77
2023/08/25 01:18:40;;;;;;;8.70;2.88;;;18.70;99.90;;;;;;5015649;28;91671;-76
2023/08/25 01:21:06;;;;;;;7.35;2.17;;;18.70;99.90;;;;;;5015714;28;87779;-76
2023/08/25 01:23:38;;;;;;;8.10;2.88;;;18.70;99.90;;;;;;5017062;28;88257;-76
2023/08/25 01:26:04;;;;;;;12.25;2.63;;;18.70;99.90;;;;;;5016588;28;87569;-77
2023/08/25 01:28:30;;;;;;;7.22;2.78;;;18.80;99.90;;;;;;5015462;28;87809;-77
2023/08/25 01:30:59;;;;;;;8.80;2.70;;;18.80;99.90;;;;;;5016762;28;88615;-76
2023/08/25 01:33:27;;;;;;;5.20;2.47;;;18.80;99.90;;;;;;4998564;28;91226;-77
2023/08/25 01:35:52;;;;;;;10.93;2.10;;;18.80;99.90;;;;;;5015897;28;88189;-77
2023/08/25 01:38:47;;;;;;;8.05;2.00;;;18.90;99.90;;;;;;5015982;28;87851;-77
2023/08/25 01:41:46;;;;;;;6.65;2.47;;;18.90;99.90;;;;;;5000426;28;88212;-77
2023/08/25 01:44:14;;;;;;;7.20;2.15;;;18.90;99.90;;;;;;5015747;28;89325;-77
2023/08/25 01:46:44;;;;;;;4.70;2.00;;;18.90;99.90;;;;;;5015786;28;87587;-77
2023/08/25 01:49:14;;;;;;;7.70;1.85;;;19.00;99.90;;;;;;5016778;28;87314;-76
2023/08/25 01:51:40;;;;;;;5.40;1.92;;;19.00;99.90;;;;;;5016151;28;93560;-77
2023/08/25 01:54:06;;;;;;;10.00;2.50;;;19.00;99.90;;;;;;5015934;28;87493;-77
2023/08/25 01:56:31;;;;;;;6.43;1.92;;;19.10;99.90;;;;;;5015113;28;88878;-77
2023/08/25 01:58:57;;;;;;;4.28;1.88;;;19.00;99.90;;;;;;5015154;28;87343;-77
2023/08/25 02:01:23;;;;;;;7.53;2.38;;;19.00;99.90;;;;;;5005759;28;89323;-76
2023/08/25 02:03:48;;;;;;;11.63;2.80;;;19.00;99.90;;;;;;5017003;28;88183;-77
2023/08/25 02:06:14;;;;;;;4.55;1.95;;;19.00;99.90;;;;;;5016842;28;87370;-77
2023/08/25 02:08:40;;;;;;;6.85;2.15;;;19.00;99.90;;;;;;5015651;28;87871;-77
2023/08/25 02:11:05;;;;;;;3.85;2.00;;;19.00;99.90;;;;;;5015735;28;89692;-77
2023/08/25 02:13:31;;;;;;;6.72;2.30;;;19.00;99.90;;;;;;5015406;28;87927;-77
2023/08/25 02:15:57;;;;;;;7.90;2.15;;;19.10;99.90;;;;;;5016188;28;87693;-77
2023/08/25 02:18:23;;;;;;;6.50;1.92;;;19.10;99.90;;;;;;4997169;28;90635;-77
2023/08/25 02:20:49;;;;;;;6.38;2.25;;;19.10;99.90;;;;;;5014866;28;91681;-77
2023/08/25 02:23:14;;;;;;;6.18;2.10;;;19.10;99.90;;;;;;5015388;28;89688;-77
2023/08/25 02:25:41;;;;;;;7.10;2.80;;;19.00;99.90;;;;;;5015849;28;87088;-77
2023/08/25 02:28:06;;;;;;;5.50;2.10;;;19.10;99.90;;;;;;5016070;28;87742;-77
2023/08/25 02:30:32;;;;;;;4.78;2.00;;;19.00;99.90;;;;;;5015240;28;87724;-77
2023/08/25 02:32:59;;;;;;;10.35;2.17;;;19.10;99.90;;;;;;5015309;28;88036;-77
2023/08/25 02:35:24;;;;;;;5.40;2.00;;;19.10;99.90;;;;;;5015475;28;87672;-77
2023/08/25 02:38:04;;;;;;;6.80;1.92;;;19.10;99.90;;;;;;5016283;28;87327;-77
2023/08/25 02:40:30;;;;;;;3.70;2.10;;;19.10;99.90;;;;;;4996276;28;90215;-76
2023/08/25 02:42:58;;;;;;;4.32;1.92;;;19.10;99.90;;;;;;5016542;28;88377;-76
2023/08/25 02:45:25;;;;;;;5.15;1.77;;;19.10;99.90;;;;;;5015049;28;88419;-76
2023/08/25 02:47:51;;;;;;;9.20;3.10;;;19.10;99.90;;;;;;4996320;28;90669;-77
2023/08/25 02:50:17;;;;;;;6.47;2.63;;;19.10;99.90;;;;;;5015131;28;88421;-77
2023/08/25 02:52:43;;;;;;;7.07;2.13;;;19.10;99.90;;;;;;5015061;28;87939;-77
2023/08/25 02:55:09;;;;;;;4.20;1.65;;;19.00;99.90;;;;;;5013907;28;87596;-76
2023/08/25 02:57:35;;;;;;;3.47;2.15;;;19.00;99.90;;;;;;5016334;28;87220;-77
2023/08/25 03:00:03;;;;;;;9.52;2.10;;;18.90;99.90;;;;;;5014535;28;87661;-76
2023/08/25 03:02:29;;;;;;;10.20;2.00;;;19.00;99.90;;;;;;5013679;28;91835;-77
2023/08/25 03:04:54;;;;;;;11.85;2.08;;;19.00;99.90;;;;;;5015125;28;87723;-76
2023/08/25 03:07:20;;;;;;;11.57;2.13;;;18.90;99.90;;;;;;5015330;28;87139;-77
2023/08/25 03:09:46;;;;;;;4.82;1.90;;;18.90;99.90;;;;;;5015813;28;89150;-77
2023/08/25 03:12:12;;;;;;;6.30;2.30;;;18.90;99.90;;;;;;5015299;28;87839;-77
2023/08/25 03:14:37;;;;;;;3.20;2.10;;;18.90;99.90;;;;;;5014953;28;87740;-76
2023/08/25 03:17:03;;;;;;;6.13;2.13;;;18.90;99.90;;;;;;5015231;28;87650;-77
2023/08/25 03:19:28;;;;;;;8.23;2.53;;;18.90;99.90;;;;;;5014590;28;88228;-77
2023/08/25 03:21:54;;;;;;;5.53;2.00;;;18.90;99.90;;;;;;5015008;28;88396;-77
2023/08/25 03:24:20;;;;;;;4.20;1.80;;;18.80;99.90;;;;;;5014750;28;87090;-77
2023/08/25 03:26:45;;;;;;;4.35;2.55;;;18.80;99.90;;;;;;5015005;28;88247;-77
2023/08/25 03:29:11;;;;;;;11.38;2.25;;;18.80;99.90;;;;;;5014103;28;89732;-77
2023/08/25 03:31:38;;;;;;;12.63;2.67;;;18.70;99.90;;;;;;5014706;28;88414;-77
2023/08/25 03:34:03;;;;;;;5.07;1.80;;;18.70;99.90;;;;;;5015082;28;88771;-77
2023/08/25 03:36:30;;;;;;;6.70;1.83;;;18.70;99.90;;;;;;5014983;28;87760;-77
2023/08/25 03:38:56;;;;;;;4.03;1.80;;;18.70;99.90;;;;;;5014251;28;88331;-76
2023/08/25 03:41:22;;;;;;;8.30;2.38;;;18.70;99.90;;;;;;5017351;28;87902;-76
2023/08/25 03:43:47;;;;;;;4.20;2.10;;;18.70;99.90;;;;;;5017564;28;87442;-77
2023/08/25 03:46:13;;;;;;;6.40;2.22;;;18.70;99.90;;;;;;5018169;28;87726;-77
2023/08/25 03:48:39;;;;;;;6.22;2.50;;;18.60;99.90;;;;;;5018641;28;88969;-77
2023/08/25 03:51:04;;;;;;;5.20;1.83;;;18.60;99.90;;;;;;5018816;28;88539;-77
2023/08/25 03:53:30;;;;;;;10.05;2.00;;;18.50;99.90;;;;;;5019050;28;87412;-77
2023/08/25 03:55:56;;;;;;;7.97;2.85;;;18.50;99.90;;;;;;5018323;28;87985;-76
2023/08/25 03:58:22;;;;;;;8.60;2.75;;;18.50;99.90;;;;;;5016807;28;89732;-77
2023/08/25 04:00:54;;;;;;;7.90;3.10;;;18.40;99.90;;;;;;5010022;28;91999;-77
2023/08/25 04:03:20;;;;;;;7.05;2.95;;;18.40;99.90;;;;;;4999330;28;87488;-77
2023/08/25 04:05:46;;;;;;;7.00;3.35;;;18.40;99.90;;;;;;5018223;28;87918;-76
2023/08/25 04:08:12;;;;;;;6.93;2.92;;;18.40;99.90;;;;;;5015197;28;91453;-77
2023/08/25 04:10:39;;;;;;;12.20;3.22;;;18.40;99.90;;;;;;5017802;28;88248;-77
2023/08/25 04:13:05;;;;;;;10.30;3.05;;;18.40;99.90;;;;;;5016110;28;87910;-77
2023/08/25 04:15:30;;;;;;;7.32;2.55;;;18.30;99.90;;;;;;5017787;28;87323;-77
2023/08/25 04:17:56;;;;;;;8.55;3.08;;;18.40;99.90;;;;;;5018088;28;87226;-77
2023/08/25 04:20:22;;;;;;;10.65;3.45;;;18.30;99.90;;;;;;4998950;28;89983;-77
2023/08/25 04:22:47;;;;;;;10.15;3.13;;;18.40;99.90;;;;;;5017683;28;88742;-76
2023/08/25 04:25:13;;;;;;;6.13;2.47;;;18.30;99.90;;;;;;5017589;28;87596;-77
2023/08/25 04:27:39;;;;;;;6.32;2.80;;;18.40;99.90;;;;;;5019187;28;88337;-77
2023/08/25 04:30:06;;;;;;;9.65;2.72;;;18.40;99.90;;;;;;5017932;28;87453;-76
2023/08/25 04:32:31;;;;;;;7.70;2.83;;;18.40;99.90;;;;;;4999784;28;87309;-77
2023/08/25 04:34:57;;;;;;;8.07;2.78;;;18.30;99.90;;;;;;5018058;28;87767;-76
2023/08/25 04:37:23;;;;;;;6.82;2.35;;;18.40;99.90;;;;;;5009605;28;91545;-77
2023/08/25 04:39:48;;;;;;;5.28;2.70;;;18.40;99.90;;;;;;5000755;28;91243;-77
2023/08/25 04:42:14;;;;;;;5.00;2.75;;;18.30;99.90;;;;;;5016856;28;87191;-76
2023/08/25 04:44:40;;;;;;;5.57;2.60;;;18.30;99.90;;;;;;4998977;28;90239;-77
2023/08/25 04:47:06;;;;;;;7.93;2.53;;;18.30;99.90;;;;;;5017342;28;89605;-77
2023/08/25 04:49:32;;;;;;;8.85;2.55;;;18.30;99.90;;;;;;5017781;28;89329;-77
2023/08/25 04:51:58;;;;;;;5.35;2.72;;;18.30;99.90;;;;;;5016706;28;87786;-77
2023/08/25 04:54:24;;;;;;;4.80;3.20;;;18.20;99.90;;;;;;5016689;28;89766;-76
2023/08/25 04:56:50;;;;;;;8.23;3.40;;;18.20;99.90;;;;;;5016607;28;89749;-76
2023/08/25 04:59:16;;;;;;;7.60;3.05;;;18.20;99.90;;;;;;5017463;28;87866;-76
2023/08/25 05:01:41;;;;;;;6.95;2.97;;;18.20;99.90;;;;;;4999390;28;87685;-77
2023/08/25 05:04:08;;;;;;;8.48;3.20;;;18.20;99.90;;;;;;5019019;28;87482;-76
2023/08/25 05:06:34;;;;;;;9.90;2.83;;;18.20;99.90;;;;;;4998123;28;91537;-77
2023/08/25 05:09:00;;;;;;;11.05;2.78;;;18.20;99.90;;;;;;5016938;28;89321;-77
2023/08/25 05:11:26;;;;;;;8.00;3.10;;;18.30;99.90;;;;;;4998849;28;88966;-76
2023/08/25 05:13:52;;;;;;;7.78;2.80;;;18.30;99.90;;;;;;4998851;28;90081;-76
2023/08/25 05:16:20;;;;;;;8.95;3.10;;;18.40;99.90;;;;;;5017916;28;88387;-77
2023/08/25 05:18:46;;;;;;;10.65;3.75;;;18.40;99.90;;;;;;4999141;28;91550;-77
2023/08/25 05:21:14;;;;;;;8.10;3.45;;;18.40;99.90;;;;;;5015285;28;87318;-76
2023/08/25 05:23:43;;;;;;;7.78;2.90;;;18.50;99.90;;;;;;5016763;28;88074;-76
2023/08/25 05:26:08;;;;;;;6.38;3.50;;;18.50;99.90;;;;;;5015056;28;91652;-77
2023/08/25 05:28:34;;;;;;;10.43;3.47;;;18.60;99.90;;;;;;5006546;28;91104;-79
2023/08/25 05:31:00;;;;;;;7.53;3.40;;;18.70;99.90;;;;;;4998622;28;87543;-79
2023/08/25 05:33:26;;;;;;;8.63;3.38;;;18.70;99.90;;;;;;4999677;28;90919;-79
2023/08/25 05:35:51;;;;;;;5.55;3.28;;;18.80;99.90;;;;;;4996366;28;93012;-79
2023/08/25 05:38:17;;;;;;;7.75;3.50;;;18.80;99.90;;;;;;4997720;28;92448;-79
2023/08/25 05:40:52;;;;;;;7.60;3.40;;;18.80;99.90;;;;;;5016997;28;87244;-79
2023/08/25 05:43:21;;;;;;;11.15;3.28;;;18.90;99.90;;;;;;5011885;28;87474;-80
2023/08/25 05:45:47;;;;;;;8.95;4.07;;;18.90;99.90;;;;;;5015610;28;91189;-81
2023/08/25 05:48:16;;;;;;;10.18;4.07;;;19.00;99.90;;;;;;4998056;28;90125;-82
2023/08/25 05:50:42;;;;;;;10.05;4.05;;;19.00;99.90;;;;;;5014713;28;87412;-81
2023/08/25 05:53:10;;;;;;;10.27;3.67;;;19.10;99.90;;;;;;5015243;28;90621;-83
2023/08/25 05:55:35;;;;;;;4.95;3.65;;;19.10;99.90;;;;;;5007354;28;90587;-83
2023/08/25 05:58:01;;;;;;;5.70;3.50;;;19.10;99.90;;;;;;4999560;28;91501;-82
2023/08/25 06:00:29;;;;;;;8.02;4.05;;;19.20;99.90;;;;;;5007244;28;88593;-83
2023/08/25 06:03:02;;;;;;;9.15;4.25;;;19.20;99.90;;;;;;4998251;28;89352;-82
2023/08/25 06:05:41;;;;;;;20.63;6.05;;;19.20;99.90;;;;;;5015507;28;90615;-87
2023/08/25 06:08:14;;;;;;;15.38;6.25;;;19.10;99.90;;;;;;5000127;28;87874;-87
2023/08/25 06:10:58;;;;;;;24.98;8.38;;;19.00;99.90;;;;;;4985791;28;89680;-88
2023/08/25 06:13:24;;;;;;;16.52;7.88;;;18.90;99.90;;;;;;4986563;28;90426;-81
2023/08/25 06:16:08;;;;;;;13.55;6.60;;;18.90;99.90;;;;;;4998765;28;89779;-84
2023/08/25 06:18:51;;;;;;;12.63;6.38;;;18.90;99.90;;;;;;4995601;28;90670;-83
2023/08/25 06:28:28;;;;;;;;;;;;;;;;;;;;;
2023/08/25 06:45:53;;;;;;;2.97;1.38;;;18.80;99.90;;;;;;4825687;29;88447;-86
2023/08/25 06:49:13;;;;;;;6.60;1.90;;;18.70;99.90;;;;;;4842269;29;87162;-85
2023/08/25 06:56:01;;;;;;;6.53;1.63;;;18.70;99.90;;;;;;4868357;28;91766;-83
2023/08/25 06:58:59;;;;;;;4.90;1.80;;;18.60;99.90;;;;;;4908873;28;90679;-84
2023/08/25 07:02:45;;;;;;;6.15;2.25;;;18.70;99.90;;;;;;4920250;28;88724;-83
2023/08/25 07:08:45;;;;;;;;;;;;;;;;;;;;;
2023/08/25 07:11:30;;;;;;;3.53;1.10;;;18.60;99.90;;;;;;4995127;28;115072;-85
2023/08/25 07:34:36;;;;;;;4.18;1.10;;;18.90;99.90;;;;;;4926827;28;91408;-87
2023/08/25 07:37:34;;;;;;;3.53;1.00;;;18.90;99.90;;;;;;4925993;28;91386;-90
2023/08/25 13:23:02;;;;;;;1.30;0.50;;;25.50;94.40;;;;;;4739443;29;88150;-88
2023/08/25 13:59:53;;;;;;;5.70;5.00;;;24.70;94.50;;;;;;4828730;28;90465;-86
2023/08/25 14:06:14;;;;;;;6.38;5.75;;;24.30;94.90;;;;;;4807862;29;87753;-85
2023/08/25 14:16:09;;;;;;;7.70;5.78;;;24.10;95.60;;;;;;4847499;28;87593;-86
2023/08/25 14:36:10;;;;;;;8.27;4.70;;;24.30;95.40;;;;;;4829698;29;87807;-86
2023/08/25 14:39:09;;;;;;;5.45;4.90;;;24.30;94.60;;;;;;4832390;29;92058;-87
2023/08/25 14:41:56;;;;;;;9.38;5.28;;;24.20;94.70;;;;;;4823149;29;88738;-87
2023/08/25 15:12:23;;;;;;;;;;;;;;;;;;;;;
2023/08/25 15:24:19;;;;;;;;;;;;;;;;;;;;;
2023/08/25 15:27:21;;;;;;;16.33;10.03;;;23.00;94.40;;;;;;4823736;29;89196;-88
2023/08/25 15:43:12;;;;;;;15.73;9.10;;;23.40;93.20;;;;;;4866437;28;88665;-89
2023/08/25 15:53:02;;;;;;;;;;;24.20;91.70;;;;;;4831004;29;90607;-87
2023/08/25 16:02:59;;;;;;;19.67;12.48;;;24.60;90.80;;;;;;4820740;29;88219;-87
2023/08/25 16:08:57;;;;;;;23.95;12.23;;;25.00;89.20;;;;;;4804893;29;87799;-86
2023/08/25 16:11:45;;;;;;;20.50;11.85;;;25.20;88.90;;;;;;4832187;29;91429;-89
2023/08/25 16:14:59;;;;;;;;;;;;;;;;;;;;;
2023/08/25 16:18:13;;;;;;;;;;;;;;;;;;;;;
2023/08/25 16:24:31;;;;;;;18.35;11.13;;;25.80;87.60;;;;;;4873760;28;87769;-89
2023/08/25 16:27:14;;;;;;;22.38;10.60;;;25.90;86.00;;;;;;4850347;28;91340;-85
2023/08/25 16:30:23;;;;;;;;;;;;;;;;;;;;;
2023/08/25 16:33:30;;;;;;;17.55;9.98;;;25.70;87.70;;;;;;4872207;28;110506;-89
2023/08/25 16:36:31;;;;;;;15.82;9.55;;;25.60;87.20;;;;;;4854921;28;89287;-87
2023/08/25 16:43:01;;;;;;;;;;;;;;;;;;;;;
2023/08/25 16:45:54;;;;;;;19.25;9.35;;;25.30;88.90;;;;;;4878126;28;111300;-86
2023/08/25 16:48:55;;;;;;;;;;;;;;;;;;;;;
2023/08/25 16:51:50;;;;;;;18.23;9.25;;;25.40;90.10;;;;;;4877001;28;119565;-85
2023/08/25 17:01:54;;;;;;;11.10;6.82;;;25.80;88.30;;;;;;4857061;29;90555;-86
2023/08/25 17:05:02;;;;;;;;;;;;;;;;;;;;;
2023/08/25 17:11:36;;;;;;;;;;;;;;;;;;;;;
2023/08/25 17:14:31;;;;;;;11.90;5.70;;;25.60;87.10;;;;;;4818452;28;114403;-87
2023/08/25 17:34:02;;;;;;;8.25;4.10;;;24.30;90.50;;;;;;4787277;29;90624;-86
2023/08/25 17:43:59;;;;;;;13.85;4.35;;;23.60;91.70;;;;;;5223320;23;88439;-86
2023/08/25 17:47:19;;;;;;;10.25;4.35;;;23.20;92.30;;;;;;4834477;29;94935;-84
2023/08/25 20:21:45;;;;;;;17.50;8.15;;;19.90;99.80;;;;;;5956459;23;88896;-96
2023/08/25 20:24:13;;;;;;;11.18;7.15;;;19.90;99.80;;;;;;4914833;28;89136;-94
2023/08/25 20:26:39;;;;;;;14.48;7.63;;;19.90;99.80;;;;;;4913835;28;88326;-94
2023/08/25 20:29:05;;;;;;;16.83;7.20;;;19.80;99.70;;;;;;4902408;28;88604;-96
2023/08/25 20:31:31;;;;;;;12.05;7.30;;;19.80;99.60;;;;;;4871695;28;89403;-96
2023/08/25 20:33:57;;;;;;;13.13;7.90;;;19.80;99.80;;;;;;4883064;28;89722;-94
2023/08/25 20:36:22;;;;;;;16.20;8.70;;;19.80;99.90;;;;;;4885080;28;88180;-94
2023/08/25 20:38:48;;;;;;;17.55;9.65;;;19.80;99.90;;;;;;4893427;28;87822;-96
2023/08/25 20:41:15;;;;;;;16.15;9.63;;;19.80;99.70;;;;;;4890447;28;88604;-96
2023/08/25 20:43:41;;;;;;;19.17;10.98;;;19.80;99.70;;;;;;4884383;28;90407;-96
2023/08/25 20:46:16;;;;;;;17.10;10.70;;;19.70;99.60;;;;;;4880701;28;87240;-96
2023/08/25 20:48:46;;;;;;;19.90;13.02;;;19.80;99.60;;;;;;4883588;28;93689;-96
2023/08/25 20:51:22;;;;;;;19.40;13.15;;;19.70;99.40;;;;;;4889574;28;90286;-96
2023/08/25 20:53:52;;;;;;;21.67;14.07;;;19.70;99.40;;;;;;4888887;28;91281;-96
2023/08/25 20:56:22;;;;;;;21.95;14.48;;;19.60;99.20;;;;;;4888480;28;87215;-96
2023/08/25 20:58:51;;;;;;;21.08;14.63;;;19.60;99.10;;;;;;4886553;28;87817;-96
2023/08/25 21:01:17;;;;;;;24.73;15.70;;;19.60;99.10;;;;;;4900836;28;89344;-94
2023/08/25 21:49:42;;;;;;;;;;;;;;;;;;;;;
2023/08/25 21:56:45;;;;;;;;;;;;;;;;;;;;;
2023/08/25 22:06:34;;;;;;;12.10;7.40;;;18.70;96.90;;;;;;4827522;28;87629;-77
2023/08/25 22:19:52;;;;;;;;;;;;;;;;;;;;;
2023/08/25 22:22:56;;;;;;;15.80;7.72;;;18.10;97.10;;;;;;4819946;29;118903;-77
2023/08/25 22:32:57;;;;;;;;;;;;;;;;;;;;;
2023/08/25 22:47:10;;;;;;;13.45;5.88;;;17.60;96.30;;;;;;4749742;29;90670;-78
2023/08/25 22:50:17;;;;;;;;;;;;;;;;;;;;;
2023/08/25 22:53:46;;;;;;;14.07;6.82;;;17.50;96.30;;;;;;4789554;29;120441;-77
2023/08/25 23:00:35;;;;;;;8.35;4.63;;;17.30;96.00;;;;;;4784741;29;87708;-78
2023/08/25 23:31:56;;;;;;;;;;;;;;;;;;;;;
